Time;durP1;ratioP1;P1;durP2;ratioP2;P2;SDS_P1;SDS_P2;PMS_P1;PMS_P2;Temp;Humidity;BMP_temperature;BMP_pressure;BME280_temperature;BME280_humidity;BME280_pressure;Samples;Min_cycle;Max_cycle;Signal;HPM_P1;HPM_P2
2024/02/20 00:00:31;;;;;;;;;10.60;10.00;;;;;11.02;100.00;99141.94;6045510;29;97684;-57
2024/02/20 00:03:34;;;;;;;;;11.00;10.00;;;;;10.79;100.00;99135.25;6049883;28;96298;-59
2024/02/20 00:06:38;;;;;;;;;12.60;12.40;;;;;10.82;100.00;99145.59;6049392;28;96540;-58
2024/02/20 00:09:41;;;;;;;;;12.00;11.33;;;;;10.87;100.00;99147.63;6033315;28;97011;-58
2024/02/20 00:12:47;;;;;;;;;13.00;12.80;;;;;11.00;100.00;99155.63;6050660;29;96310;-58
2024/02/20 00:15:50;;;;;;;;;10.00;9.00;;;;;11.07;100.00;99142.94;6050554;29;96279;-57
2024/02/20 00:18:54;;;;;;;;;11.40;10.40;;;;;11.00;100.00;99149.41;6049874;29;96407;-57
2024/02/20 00:21:57;;;;;;;;;11.00;10.00;;;;;11.17;100.00;99158.63;6016565;29;98385;-55
2024/02/20 00:25:00;;;;;;;;;12.20;11.20;;;;;11.22;100.00;99161.50;6050317;29;96954;-58
2024/02/20 00:28:06;;;;;;;;;10.00;9.00;;;;;11.22;100.00;99156.09;6050128;29;96311;-58
2024/02/20 00:31:09;;;;;;;;;11.40;10.60;;;;;11.30;100.00;99166.63;6050306;28;96437;-60
2024/02/20 00:34:12;;;;;;;;;12.40;11.00;;;;;11.35;100.00;99168.66;6030188;29;96755;-58
2024/02/20 00:37:16;;;;;;;;;9.80;9.40;;;;;11.32;100.00;99177.22;6049763;29;96087;-60
2024/02/20 00:40:19;;;;;;;;;8.60;8.60;;;;;11.25;100.00;99153.78;6050015;28;96410;-59
2024/02/20 00:43:24;;;;;;;;;9.00;9.00;;;;;11.27;100.00;99158.97;6050456;28;96305;-58
2024/02/20 00:46:28;;;;;;;;;9.40;8.60;;;;;11.28;100.00;99156.06;6049112;28;96616;-58
2024/02/20 00:49:31;;;;;;;;;8.67;8.00;;;;;11.22;100.00;99145.31;6049943;29;96395;-58
2024/02/20 00:52:34;;;;;;;;;7.00;7.00;;;;;11.19;100.00;99156.56;6050040;28;96695;-57
2024/02/20 00:55:38;;;;;;;;;6.00;6.00;;;;;11.11;100.00;99154.09;6049255;28;96354;-57
2024/02/20 00:58:43;;;;;;;;;7.00;6.50;;;;;11.05;100.00;99139.63;6018717;29;96997;-57
2024/02/20 01:01:47;;;;;;;;;9.00;9.00;;;;;11.00;100.00;99152.09;6020635;29;96306;-57
2024/02/20 01:04:51;;;;;;;;;7.40;7.40;;;;;10.97;100.00;99149.84;6003051;29;99565;-57
2024/02/20 01:07:55;;;;;;;;;8.00;8.00;;;;;10.95;100.00;99152.75;6020236;29;96241;-57
2024/02/20 01:10:58;;;;;;;;;6.80;6.80;;;;;10.77;100.00;99155.38;6019673;29;97286;-57
2024/02/20 01:14:03;;;;;;;;;6.00;6.00;;;;;10.72;100.00;99157.88;6019680;29;96368;-58
2024/02/20 01:17:06;;;;;;;;;7.80;7.00;;;;;10.74;100.00;99159.34;6020040;29;96396;-57
2024/02/20 01:20:11;;;;;;;;;7.00;7.00;;;;;10.72;100.00;99149.78;6002972;29;96574;-57
2024/02/20 01:23:14;;;;;;;;;6.00;5.40;;;;;10.71;100.00;99148.13;6019870;29;96432;-56
2024/02/20 01:26:18;;;;;;;;;7.00;6.00;;;;;10.68;100.00;99157.50;6019892;29;97004;-57
2024/02/20 01:29:23;;;;;;;;;4.40;4.40;;;;;10.61;100.00;99159.38;6019821;29;96411;-57
2024/02/20 01:32:26;;;;;;;;;5.00;5.00;;;;;10.70;100.00;99151.91;6020027;28;96966;-57
2024/02/20 01:35:30;;;;;;;;;4.20;4.00;;;;;10.54;100.00;99142.44;6019723;29;96443;-57
2024/02/20 01:38:33;;;;;;;;;5.00;4.40;;;;;10.67;100.00;99142.34;6019837;29;96333;-57
2024/02/20 01:41:36;;;;;;;;;5.00;4.00;;;;;10.67;100.00;99138.81;6020103;29;96346;-57
2024/02/20 01:44:41;;;;;;;;;5.00;5.00;;;;;10.65;100.00;99132.84;6003162;29;96590;-57
2024/02/20 01:47:44;;;;;;;;;5.00;5.00;;;;;10.61;100.00;99131.59;6019789;29;96405;-57
2024/02/20 01:50:48;;;;;;;;;4.75;4.00;;;;;10.58;100.00;99126.66;6019266;29;96330;-57
2024/02/20 01:53:53;;;;;;;;;4.00;4.00;;;;;10.59;100.00;99126.44;6019734;29;96418;-58
2024/02/20 01:56:56;;;;;;;;;5.40;5.40;;;;;10.62;100.00;99133.25;6019334;29;96317;-57
2024/02/20 02:00:04;;;;;;;;;6.00;5.00;;;;;10.64;100.00;99126.63;6019504;29;96987;-57
2024/02/20 02:03:14;;;;;;;;;4.00;4.00;;;;;10.63;100.00;99124.97;6036425;23;98177;-55
2024/02/20 02:06:17;;;;;;;;;4.67;4.67;;;;;10.63;100.00;99133.06;6060417;28;96310;-55
2024/02/20 02:09:21;;;;;;;;;5.50;5.00;;;;;10.65;100.00;99127.44;6023163;28;96675;-55
2024/02/20 02:12:24;;;;;;;;;4.20;4.00;;;;;10.65;100.00;99119.38;6019827;29;96531;-55
2024/02/20 02:15:29;;;;;;;;;6.00;6.00;;;;;10.72;100.00;99130.91;6020657;29;96599;-55
2024/02/20 02:18:32;;;;;;;;;4.80;4.80;;;;;10.68;100.00;99117.06;6023059;29;96346;-55
2024/02/20 02:21:37;;;;;;;;;5.40;4.00;;;;;10.73;100.00;99116.41;6027896;28;96357;-55
2024/02/20 02:24:41;;;;;;;;;4.00;4.00;;;;;10.80;100.00;99114.47;6026982;28;96806;-55
2024/02/20 02:27:46;;;;;;;;;3.80;3.80;;;;;10.80;100.00;99119.88;6026887;28;96316;-55
2024/02/20 02:30:49;;;;;;;;;3.60;3.00;;;;;10.77;100.00;99123.84;6023399;29;96390;-55
2024/02/20 02:33:53;;;;;;;;;3.00;2.00;;;;;10.79;100.00;99119.06;6023720;29;96450;-55
2024/02/20 02:36:56;;;;;;;;;4.00;3.00;;;;;10.82;100.00;99120.47;6023440;29;96386;-55
2024/02/20 02:39:59;;;;;;;;;5.00;4.00;;;;;10.77;100.00;99112.22;6023149;29;97199;-55
2024/02/20 02:43:04;;;;;;;;;3.00;2.00;;;;;10.81;100.00;99113.44;6023024;29;96425;-55
2024/02/20 02:46:10;;;;;;;;;4.00;4.00;;;;;10.85;100.00;99112.78;6023537;29;96456;-55
2024/02/20 02:49:14;;;;;;;;;3.00;3.00;;;;;10.88;100.00;99114.22;6023207;29;96544;-55
2024/02/20 02:52:17;;;;;;;;;3.00;2.00;;;;;10.94;100.00;99120.63;6023224;29;96328;-55
2024/02/20 02:55:25;;;;;;;;;3.00;2.00;;;;;10.98;100.00;99111.03;6022801;29;96377;-55
2024/02/20 02:58:30;;;;;;;;;3.00;2.00;;;;;11.00;100.00;99122.41;6023583;29;96400;-55
2024/02/20 03:01:33;;;;;;;;;2.00;2.00;;;;;11.09;100.00;99127.34;6022697;29;96965;-55
2024/02/20 03:04:37;;;;;;;;;1.00;1.00;;;;;11.01;100.00;99122.22;6045772;28;96628;-55
2024/02/20 03:07:40;;;;;;;;;2.40;2.00;;;;;11.09;100.00;99121.94;6065133;28;96404;-55
2024/02/20 03:10:44;;;;;;;;;2.00;2.00;;;;;11.11;100.00;99119.03;6058777;28;96281;-55
2024/02/20 03:13:49;;;;;;;;;2.00;2.00;;;;;11.14;100.00;99124.81;6068066;28;96214;-55
2024/02/20 03:16:52;;;;;;;;;1.20;1.20;;;;;11.11;100.00;99125.25;6030250;28;96315;-58
2024/02/20 03:19:56;;;;;;;;;3.00;2.00;;;;;11.13;100.00;99123.19;6045073;28;96456;-58
2024/02/20 03:23:00;;;;;;;;;3.00;3.00;;;;;11.15;100.00;99118.38;6045902;28;96308;-58
2024/02/20 03:26:03;;;;;;;;;3.00;2.00;;;;;11.17;100.00;99129.78;6044956;28;96402;-58
2024/02/20 03:29:09;;;;;;;;;3.50;3.00;;;;;11.19;100.00;99121.47;6045687;28;96445;-58
2024/02/20 03:32:12;;;;;;;;;2.00;2.00;;;;;11.26;100.00;99131.16;6045832;28;96302;-58
2024/02/20 03:35:20;;;;;;;;;2.60;2.00;;;;;11.27;100.00;99137.38;6045846;28;97528;-58
2024/02/20 03:38:24;;;;;;;;;3.00;2.20;;;;;11.29;100.00;99128.00;6046089;28;97013;-58
2024/02/20 03:41:27;;;;;;;;;3.00;2.40;;;;;11.30;100.00;99135.06;6045232;28;96369;-58
2024/02/20 03:44:32;;;;;;;;;3.00;3.00;;;;;11.35;100.00;99122.78;6044493;28;96596;-58
2024/02/20 03:47:35;;;;;;;;;2.60;2.00;;;;;11.30;100.00;99116.16;6028349;28;96311;-57
2024/02/20 03:50:39;;;;;;;;;3.00;3.00;;;;;11.32;100.00;99118.66;6045351;28;96223;-57
2024/02/20 03:53:42;;;;;;;;;2.60;2.00;;;;;11.36;100.00;99119.03;6027970;28;96596;-58
2024/02/20 03:56:45;;;;;;;;;3.00;2.00;;;;;11.35;100.00;99129.00;6044025;28;96354;-58
2024/02/20 03:59:50;;;;;;;;;3.00;3.00;;;;;11.39;100.00;99132.91;6027806;28;97592;-57
2024/02/20 04:02:56;;;;;;;;;4.00;3.00;;;;;11.42;100.00;99132.47;6059267;28;96587;-57
2024/02/20 04:05:59;;;;;;;;;6.00;5.00;;;;;11.43;100.00;99130.63;6069080;28;96277;-58
2024/02/20 04:09:04;;;;;;;;;5.00;5.00;;;;;11.36;100.00;99130.66;6067998;28;96306;-57
2024/02/20 04:12:07;;;;;;;;;3.40;3.00;;;;;11.38;100.00;99133.97;6043519;28;96683;-58
2024/02/20 04:15:14;;;;;;;;;4.50;4.00;;;;;11.39;100.00;99134.78;6044985;28;96327;-58
2024/02/20 04:18:17;;;;;;;;;4.50;4.00;;;;;11.32;100.00;99136.72;6045166;28;96805;-58
2024/02/20 04:21:20;;;;;;;;;4.00;4.00;;;;;11.34;100.00;99137.34;6044450;28;96376;-58
2024/02/20 04:24:23;;;;;;;;;3.00;3.00;;;;;11.31;100.00;99130.50;6044988;28;96353;-58
2024/02/20 04:27:27;;;;;;;;;3.75;3.00;;;;;11.18;100.00;99122.50;6045067;28;96239;-56
2024/02/20 04:30:32;;;;;;;;;3.00;3.00;;;;;11.13;100.00;99131.28;6044175;28;96822;-56
2024/02/20 04:33:36;;;;;;;;;3.00;3.00;;;;;11.15;100.00;99134.56;6043101;28;97486;-55
2024/02/20 04:36:39;;;;;;;;;3.00;2.80;;;;;11.17;100.00;99124.38;6044323;28;96852;-55
2024/02/20 04:39:44;;;;;;;;;3.00;2.00;;;;;11.08;100.00;99127.56;6044503;28;96368;-55
2024/02/20 04:42:47;;;;;;;;;3.00;3.00;;;;;10.99;100.00;99127.03;6044812;28;96340;-55
2024/02/20 04:45:52;;;;;;;;;3.00;2.60;;;;;10.89;100.00;99126.69;6050051;28;96308;-55
2024/02/20 04:48:55;;;;;;;;;4.00;3.40;;;;;10.86;100.00;99121.69;6043599;28;96419;-55
2024/02/20 04:51:58;;;;;;;;;3.00;3.00;;;;;10.84;100.00;99124.63;6041504;28;96375;-55
2024/02/20 04:55:02;;;;;;;;;3.00;3.00;;;;;10.85;100.00;99128.97;6031478;28;96411;-55
2024/02/20 04:58:06;;;;;;;;;3.60;3.00;;;;;10.91;100.00;99129.97;6044260;28;96414;-55
2024/02/20 05:01:11;;;;;;;;;4.80;4.20;;;;;10.81;100.00;99127.75;6043300;28;97292;-55
2024/02/20 05:04:14;;;;;;;;;5.00;5.00;;;;;10.85;100.00;99123.56;6047570;28;97434;-55
2024/02/20 05:07:17;;;;;;;;;5.00;4.00;;;;;10.89;100.00;99128.53;6067478;28;96452;-55
2024/02/20 05:10:21;;;;;;;;;6.00;6.00;;;;;10.90;100.00;99130.19;6057516;28;97045;-55
2024/02/20 05:13:24;;;;;;;;;5.50;5.00;;;;;10.99;100.00;99131.59;6047529;28;97165;-55
2024/02/20 05:16:29;;;;;;;;;6.20;6.20;;;;;11.01;100.00;99133.00;6052371;28;96953;-55
2024/02/20 05:19:32;;;;;;;;;5.20;4.80;;;;;11.13;100.00;99135.84;6054534;28;96363;-55
2024/02/20 05:22:36;;;;;;;;;6.00;6.00;;;;;11.14;100.00;99143.69;6043594;28;96374;-55
2024/02/20 05:25:39;;;;;;;;;5.00;4.00;;;;;11.18;100.00;99139.53;6043244;28;96807;-55
2024/02/20 05:28:42;;;;;;;;;5.00;4.00;;;;;11.23;100.00;99147.81;6043239;28;96847;-55
2024/02/20 05:31:47;;;;;;;;;6.40;6.00;;;;;11.32;100.00;99144.81;6042489;28;96387;-56
2024/02/20 05:34:50;;;;;;;;;7.00;6.00;;;;;11.30;100.00;99145.88;6066359;28;96805;-55
2024/02/20 05:37:53;;;;;;;;;5.20;5.00;;;;;11.34;100.00;99145.44;6078634;28;96392;-52
2024/02/20 05:40:57;;;;;;;;;7.40;6.00;;;;;11.35;100.00;99144.38;6075834;28;96267;-53
2024/02/20 05:44:00;;;;;;;;;8.00;8.00;;;;;11.34;100.00;99131.94;6058357;28;98275;-53
2024/02/20 05:47:05;;;;;;;;;6.00;6.00;;;;;11.35;100.00;99145.19;6057630;28;99797;-53
2024/02/20 05:50:10;;;;;;;;;6.00;6.00;;;;;11.34;100.00;99140.84;6059468;28;96721;-52
2024/02/20 05:53:14;;;;;;;;;6.20;6.00;;;;;11.39;100.00;99142.88;6046772;28;96562;-52
2024/02/20 05:56:17;;;;;;;;;5.00;5.00;;;;;11.30;100.00;99121.56;6047573;28;96843;-52
2024/02/20 05:59:20;;;;;;;;;5.50;5.00;;;;;11.40;100.00;99149.94;6063115;28;96315;-52
2024/02/20 06:02:25;;;;;;;;;6.00;6.00;;;;;11.42;100.00;99159.47;6061572;28;97420;-56
2024/02/20 06:05:29;;;;;;;;;6.80;6.00;;;;;11.40;100.00;99153.47;6040679;28;96346;-52
2024/02/20 06:08:32;;;;;;;;;4.60;4.60;;;;;11.42;100.00;99156.78;6054571;28;96364;-54
2024/02/20 06:11:37;;;;;;;;;5.00;5.00;;;;;11.43;100.00;99149.50;6068369;28;96944;-52
2024/02/20 06:14:43;;;;;;;;;5.00;5.00;;;;;11.35;100.00;99153.28;6061952;28;96311;-52
2024/02/20 06:17:48;;;;;;;;;5.00;5.00;;;;;11.39;100.00;99157.19;6071893;28;96403;-52
2024/02/20 06:20:52;;;;;;;;;6.00;5.00;;;;;11.37;100.00;99162.00;6058504;28;96395;-52
2024/02/20 06:23:55;;;;;;;;;5.80;4.80;;;;;11.40;100.00;99164.25;6061772;28;96469;-53
2024/02/20 06:26:58;;;;;;;;;3.60;3.60;;;;;11.43;100.00;99163.00;6061385;28;96285;-53
2024/02/20 06:30:02;;;;;;;;;5.60;5.00;;;;;11.47;100.00;99175.03;6061732;28;96895;-52
2024/02/20 06:33:07;;;;;;;;;5.00;5.00;;;;;11.49;100.00;99173.72;6074087;28;96276;-52
2024/02/20 06:36:10;;;;;;;;;5.00;5.00;;;;;11.59;100.00;99165.97;6051586;28;96882;-52
2024/02/20 06:39:13;;;;;;;;;7.25;6.25;;;;;11.67;100.00;99171.09;6058990;28;96296;-53
2024/02/20 06:42:17;;;;;;;;;6.40;6.00;;;;;11.76;100.00;99170.84;6058737;28;96418;-53
2024/02/20 06:45:20;;;;;;;;;6.60;6.60;;;;;11.82;100.00;99169.97;6058341;28;96377;-53
2024/02/20 06:48:25;;;;;;;;;7.00;7.00;;;;;11.88;100.00;99177.97;6046607;28;96844;-55
2024/02/20 06:51:28;;;;;;;;;7.00;6.00;;;;;11.94;100.00;99182.50;6044908;28;96753;-55
2024/02/20 06:54:31;;;;;;;;;5.00;5.00;;;;;12.03;100.00;99183.84;6045604;28;96233;-55
2024/02/20 06:57:35;;;;;;;;;5.60;5.60;;;;;12.14;100.00;99182.28;6046510;28;96443;-55
2024/02/20 07:00:38;;;;;;;;;7.00;7.00;;;;;12.24;100.00;99181.78;6045431;28;96879;-55
2024/02/20 07:03:45;;;;;;;;;6.00;6.00;;;;;12.36;100.00;99185.38;6045346;28;96343;-55
2024/02/20 07:06:48;;;;;;;;;6.00;6.00;;;;;12.43;100.00;99184.25;6033083;28;96448;-55
2024/02/20 07:09:51;;;;;;;;;5.00;5.00;;;;;12.50;100.00;99187.72;6042029;28;96364;-55
2024/02/20 07:12:55;;;;;;;;;7.00;6.25;;;;;12.69;100.00;99196.63;6041270;28;96496;-55
2024/02/20 07:15:59;;;;;;;;;7.00;7.00;;;;;13.12;100.00;99192.94;6045913;28;96526;-55
2024/02/20 07:19:03;;;;;;;;;10.00;8.00;;;;;13.76;100.00;99201.09;6043932;28;96265;-55
2024/02/20 07:22:07;;;;;;;;;6.00;6.00;;;;;14.48;100.00;99198.94;6045563;28;96486;-55
2024/02/20 07:25:10;;;;;;;;;8.00;8.00;;;;;15.18;100.00;99193.25;6044596;28;97084;-55
2024/02/20 07:28:14;;;;;;;;;9.00;7.80;;;;;15.44;100.00;99208.91;6045109;28;96588;-55
2024/02/20 07:31:22;;;;;;;;;8.40;8.00;;;;;15.41;100.00;99214.03;6045135;28;96436;-55
2024/02/20 07:34:27;;;;;;;;;8.00;7.00;;;;;15.12;100.00;99211.34;6045267;28;97085;-55
2024/02/20 07:37:30;;;;;;;;;9.75;8.00;;;;;14.89;100.00;99205.19;6036476;28;98048;-55
2024/02/20 07:40:33;;;;;;;;;7.60;7.40;;;;;14.57;100.00;99205.63;6045610;28;96369;-55
2024/02/20 07:43:37;;;;;;;;;11.75;9.00;;;;;14.45;100.00;99204.03;6045236;28;96358;-55
2024/02/20 07:46:40;;;;;;;;;8.00;7.00;;;;;14.45;100.00;99196.72;6040990;28;96451;-55
2024/02/20 07:49:46;;;;;;;;;7.00;6.40;;;;;14.55;100.00;99206.94;6035612;28;96855;-55
2024/02/20 07:52:49;;;;;;;;;8.40;7.00;;;;;14.69;100.00;99203.72;6038427;28;96440;-55
2024/02/20 07:55:53;;;;;;;;;8.00;7.00;;;;;14.92;100.00;99201.97;6045040;28;96622;-55
2024/02/20 07:58:57;;;;;;;;;7.00;6.00;;;;;14.69;100.00;99208.31;6045451;28;96443;-56
2024/02/20 08:02:04;;;;;;;;;5.67;4.00;;;;;14.27;100.00;99207.66;6042360;28;96692;-55
2024/02/20 08:05:10;;;;;;;;;6.00;5.00;;;;;14.08;100.00;99212.38;6038319;28;96424;-55
2024/02/20 08:08:14;;;;;;;;;4.00;4.00;;;;;13.80;100.00;99204.13;6033748;28;96411;-55
2024/02/20 08:11:17;;;;;;;;;7.00;6.00;;;;;13.67;100.00;99216.03;6028910;28;96376;-55
2024/02/20 08:14:20;;;;;;;;;4.00;4.00;;;;;13.47;100.00;99217.41;6036898;28;96357;-55
2024/02/20 08:17:23;;;;;;;;;7.00;6.40;;;;;13.40;100.00;99215.63;6044955;28;96291;-55
2024/02/20 08:20:28;;;;;;;;;4.00;4.00;;;;;13.19;100.00;99215.34;6025839;28;97247;-55
2024/02/20 08:23:31;;;;;;;;;4.80;4.00;;;;;13.11;100.00;99216.47;6044965;28;96863;-55
2024/02/20 08:26:36;;;;;;;;;4.33;4.00;;;;;13.00;100.00;99215.34;6044581;28;96611;-55
2024/02/20 08:29:39;;;;;;;;;5.50;5.00;;;;;12.94;100.00;99213.56;6044239;28;97707;-55
2024/02/20 08:32:44;;;;;;;;;5.80;4.20;;;;;12.95;100.00;99225.22;6044097;28;96313;-55
2024/02/20 08:35:49;;;;;;;;;6.00;5.00;;;;;12.68;100.00;99218.47;6021144;29;96372;-55
2024/02/20 08:38:52;;;;;;;;;5.40;5.40;;;;;12.58;100.00;99209.03;6020849;29;96242;-55
2024/02/20 08:41:55;;;;;;;;;5.40;5.00;;;;;12.59;100.00;99213.38;6037599;28;96422;-55
2024/02/20 08:44:58;;;;;;;;;5.00;5.00;;;;;12.65;100.00;99218.94;6067132;28;96831;-55
2024/02/20 08:48:02;;;;;;;;;5.50;4.50;;;;;12.62;100.00;99216.69;6046637;28;96301;-55
2024/02/20 08:51:06;;;;;;;;;7.80;6.20;;;;;12.57;100.00;99225.47;6042079;28;96481;-55
2024/02/20 08:54:09;;;;;;;;;8.00;6.00;;;;;12.68;100.00;99226.59;6041959;28;96424;-55
2024/02/20 08:57:13;;;;;;;;;5.40;5.00;;;;;12.69;100.00;99229.09;6042364;28;96388;-55
2024/02/20 09:00:16;;;;;;;;;7.80;7.80;;;;;12.62;100.00;99228.31;6042785;28;96576;-55
2024/02/20 09:03:19;;;;;;;;;7.00;7.00;;;;;12.59;100.00;99236.91;6043477;28;96551;-55
2024/02/20 09:06:24;;;;;;;;;7.00;6.00;;;;;12.58;100.00;99243.34;6044274;28;96645;-55
2024/02/20 09:09:27;;;;;;;;;7.60;6.60;;;;;12.56;100.00;99240.88;6050489;28;96405;-55
2024/02/20 09:12:31;;;;;;;;;7.00;7.00;;;;;12.55;100.00;99239.25;6042816;28;96680;-55
2024/02/20 09:15:35;;;;;;;;;6.00;5.40;;;;;12.62;100.00;99241.03;6068140;28;96244;-55
2024/02/20 09:18:39;;;;;;;;;6.00;6.00;;;;;12.53;100.00;99252.16;6073915;28;96326;-55
2024/02/20 09:21:43;;;;;;;;;7.80;7.00;;;;;12.45;100.00;99252.47;6073916;28;96295;-55
2024/02/20 09:24:46;;;;;;;;;7.75;7.00;;;;;12.46;100.00;99245.19;6073185;28;96359;-55
2024/02/20 09:27:50;;;;;;;;;6.25;6.00;;;;;12.40;100.00;99255.00;6074323;28;96458;-55
2024/02/20 09:30:53;;;;;;;;;7.00;7.00;;;;;12.34;100.00;99244.25;6073902;28;96226;-55
2024/02/20 09:33:57;;;;;;;;;6.60;6.00;;;;;12.18;100.00;99253.78;6073659;28;96859;-55
2024/02/20 09:37:03;;;;;;;;;5.50;4.50;;;;;12.30;100.00;99257.41;6073984;28;96894;-55
2024/02/20 09:40:07;;;;;;;;;7.00;7.00;;;;;12.40;100.00;99251.47;6074054;28;96310;-55
2024/02/20 09:43:10;;;;;;;;;8.00;6.00;;;;;12.38;100.00;99250.88;6073692;28;96393;-55
2024/02/20 09:46:21;;;;;;;;;8.00;7.40;;;;;12.34;100.00;99245.09;6073678;28;96521;-55
2024/02/20 09:49:24;;;;;;;;;8.00;7.00;;;;;12.40;100.00;99249.59;6074002;28;96487;-55
2024/02/20 09:52:31;;;;;;;;;10.40;8.40;;;;;12.42;100.00;99254.75;6073539;28;96648;-55
2024/02/20 09:55:34;;;;;;;;;10.40;10.00;;;;;12.61;100.00;99255.63;6074036;28;96892;-55
2024/02/20 09:58:38;;;;;;;;;9.00;9.00;;;;;12.73;100.00;99251.09;6059583;28;96511;-56
2024/02/20 10:01:41;;;;;;;;;11.00;8.75;;;;;12.88;100.00;99251.53;6074168;28;96360;-55
2024/02/20 10:04:46;;;;;;;;;11.00;10.00;;;;;12.95;100.00;99255.78;6073310;28;96450;-55
2024/02/20 10:07:59;;;;;;;;;9.00;9.00;;;;;12.86;100.00;99249.03;6073362;28;96390;-55
2024/02/20 10:11:04;;;;;;;;;8.25;8.00;;;;;13.08;100.00;99246.69;6071988;28;96368;-55
2024/02/20 10:14:08;;;;;;;;;7.00;7.00;;;;;13.07;100.00;99244.19;6072054;28;96285;-55
2024/02/20 10:17:11;;;;;;;;;8.75;8.50;;;;;13.17;100.00;99247.22;6042824;28;96952;-55
2024/02/20 10:20:16;;;;;;;;;6.75;6.00;;;;;13.18;100.00;99243.47;6061428;28;96274;-55
2024/02/20 10:23:21;;;;;;;;;5.00;5.00;;;;;13.31;100.00;99251.38;6070433;28;96980;-55
2024/02/20 10:26:24;;;;;;;;;5.75;5.75;;;;;13.33;100.00;99252.00;6053080;28;96740;-55
2024/02/20 10:29:30;;;;;;;;;5.80;5.00;;;;;13.29;100.00;99248.91;6069536;28;97072;-55
2024/02/20 10:32:34;;;;;;;;;7.00;6.20;;;;;13.15;100.00;99216.81;6072003;28;96383;-55
2024/02/20 10:35:39;;;;;;;;;7.40;7.00;;;;;13.03;100.00;99241.13;6053057;28;98492;-55
2024/02/20 10:38:44;;;;;;;;;6.00;6.00;;;;;12.84;100.00;99243.06;6076876;28;96197;-55
2024/02/20 10:41:55;;;;;;;;;7.80;7.00;;;;;12.59;100.00;99234.19;6076376;28;96393;-55
2024/02/20 10:44:58;;;;;;;;;7.00;7.00;;;;;12.70;100.00;99235.31;6023644;28;96829;-55
2024/02/20 10:48:04;;;;;;;;;8.20;7.20;;;;;12.60;100.00;99233.16;6064274;28;96448;-55
2024/02/20 10:51:07;;;;;;;;;8.60;8.60;;;;;12.68;100.00;99224.72;6074501;28;96779;-55
2024/02/20 10:54:13;;;;;;;;;11.60;10.60;;;;;12.84;100.00;99224.09;6075467;28;96622;-55
2024/02/20 10:57:18;;;;;;;;;10.75;10.00;;;;;12.93;100.00;99227.31;6075789;28;96285;-55
2024/02/20 11:00:21;;;;;;;;;12.60;11.00;;;;;13.03;100.00;99222.19;6076309;28;96916;-55
2024/02/20 11:03:25;;;;;;;;;9.25;9.25;;;;;13.24;100.00;99216.28;6073503;28;96404;-55
2024/02/20 11:06:34;;;;;;;;;10.00;9.00;;;;;13.25;100.00;99222.50;6072230;28;96337;-55
2024/02/20 11:09:41;;;;;;;;;9.20;9.20;;;;;13.26;100.00;99207.94;6075711;28;96313;-55
2024/02/20 11:12:44;;;;;;;;;9.00;8.25;;;;;13.30;100.00;99214.53;6075338;28;96217;-55
2024/02/20 11:15:49;;;;;;;;;9.00;9.00;;;;;13.39;100.00;99213.13;6073419;28;97081;-55
2024/02/20 11:18:53;;;;;;;;;11.00;10.00;;;;;13.37;100.00;99213.38;6053929;28;97141;-55
2024/02/20 11:22:07;;;;;;;;;11.00;11.00;;;;;13.41;100.00;99208.31;6071005;28;96350;-55
2024/02/20 11:25:15;;;;;;;;;10.80;10.20;;;;;13.36;100.00;99210.91;6075438;28;96376;-55
2024/02/20 11:28:18;;;;;;;;;10.20;9.00;;;;;13.35;100.00;99212.78;6062292;28;97007;-53
2024/02/20 11:31:26;;;;;;;;;13.00;12.00;;;;;13.30;100.00;99207.22;6058206;28;96359;-53
2024/02/20 11:34:33;;;;;;;;;11.00;10.00;;;;;13.23;100.00;99209.22;6058499;28;96729;-53
2024/02/20 11:37:47;;;;;;;;;11.50;10.00;;;;;13.22;100.00;99195.91;6059304;28;96378;-53
2024/02/20 11:40:58;;;;;;;;;12.40;11.00;;;;;13.34;100.00;99204.91;6060248;28;96976;-52
2024/02/20 11:44:03;;;;;;;;;12.00;11.00;;;;;13.37;100.00;99188.19;6060146;28;96398;-53
2024/02/20 11:47:06;;;;;;;;;10.20;10.00;;;;;13.36;100.00;99197.34;6043572;28;97282;-52
2024/02/20 11:50:11;;;;;;;;;11.00;10.00;;;;;13.34;100.00;99194.06;6055381;28;96423;-52
2024/02/20 11:53:16;;;;;;;;;11.00;10.00;;;;;13.37;100.00;99194.44;6042426;28;96867;-52
2024/02/20 11:56:21;;;;;;;;;12.00;12.00;;;;;13.50;100.00;99197.97;6060956;28;96483;-53
2024/02/20 11:59:24;;;;;;;;;10.25;10.25;;;;;13.58;100.00;99184.09;6043686;28;96344;-53
2024/02/20 12:02:27;;;;;;;;;12.00;11.00;;;;;13.60;100.00;99188.22;6060841;28;96444;-53
2024/02/20 12:05:37;;;;;;;;;11.00;9.00;;;;;13.60;100.00;99184.69;6070039;28;96591;-52
2024/02/20 12:08:44;;;;;;;;;13.40;12.00;;;;;13.60;100.00;99179.25;6060171;28;96744;-53
2024/02/20 12:11:50;;;;;;;;;9.60;9.00;;;;;13.58;100.00;99192.22;6061191;28;96690;-52
2024/02/20 12:14:58;;;;;;;;;12.20;10.00;;;;;13.77;100.00;99174.81;6060320;28;96972;-53
2024/02/20 12:18:01;;;;;;;;;10.00;10.00;;;;;13.91;100.00;99188.94;6050050;28;96969;-53
2024/02/20 12:21:05;;;;;;;;;11.00;10.40;;;;;13.96;100.00;99181.75;6051857;28;96312;-54
2024/02/20 12:24:10;;;;;;;;;11.00;10.60;;;;;14.09;100.00;99175.25;6050188;28;96429;-52
2024/02/20 12:27:15;;;;;;;;;12.00;11.00;;;;;14.43;100.00;99179.00;6060964;28;96269;-53
2024/02/20 12:30:18;;;;;;;;;10.80;9.20;;;;;14.65;100.00;99180.03;6057586;28;96305;-52
2024/02/20 12:33:22;;;;;;;;;11.40;11.00;;;;;14.97;100.00;99183.06;6059901;28;96420;-52
2024/02/20 12:36:28;;;;;;;;;8.00;8.00;;;;;15.21;100.00;99178.34;6048942;28;96380;-53
2024/02/20 12:39:31;;;;;;;;;11.80;10.20;;;;;15.39;100.00;99186.31;6071553;28;96248;-55
2024/02/20 12:42:36;;;;;;;;;7.60;7.00;;;;;15.46;100.00;99178.81;6074284;28;96355;-55
2024/02/20 12:45:39;;;;;;;;;9.80;8.80;;;;;15.34;100.00;99178.06;6054427;28;97176;-55
2024/02/20 12:48:52;;;;;;;;;9.00;9.00;;;;;15.22;100.00;99171.84;6048721;28;96416;-55
2024/02/20 12:51:56;;;;;;;;;9.40;9.00;;;;;15.06;100.00;99177.00;6066085;28;96448;-55
2024/02/20 12:54:59;;;;;;;;;10.00;9.00;;;;;14.79;100.00;99169.72;6072353;28;96325;-55
2024/02/20 12:58:04;;;;;;;;;10.25;8.75;;;;;14.66;100.00;99168.91;6074468;28;96289;-55
2024/02/20 13:01:08;;;;;;;;;10.00;9.00;;;;;14.52;100.00;99167.53;6069752;28;96305;-55
2024/02/20 13:04:11;;;;;;;;;10.00;10.00;;;;;14.42;100.00;99167.34;6066242;28;96329;-55
2024/02/20 13:07:15;;;;;;;;;10.50;10.00;;;;;14.45;100.00;99157.91;6074337;28;96391;-56
2024/02/20 13:10:18;;;;;;;;;11.00;10.00;;;;;14.49;100.00;99161.78;6072913;28;97448;-55
2024/02/20 13:13:24;;;;;;;;;10.60;9.00;;;;;14.50;100.00;99164.25;6073523;28;96428;-55
2024/02/20 13:16:28;;;;;;;;;8.60;8.00;;;;;14.58;100.00;99166.59;6070672;28;96333;-55
2024/02/20 13:19:32;;;;;;;;;9.00;8.00;;;;;14.61;100.00;99168.81;6058645;28;96206;-55
2024/02/20 13:22:36;;;;;;;;;8.50;8.00;;;;;14.57;100.00;99162.22;6067575;28;96382;-55
2024/02/20 13:25:39;;;;;;;;;7.20;7.20;;;;;14.69;100.00;99164.91;6073993;28;96378;-55
2024/02/20 13:28:44;;;;;;;;;11.00;10.00;;;;;14.49;100.00;99159.91;6073422;28;96389;-55
2024/02/20 13:31:47;;;;;;;;;8.75;8.75;;;;;14.60;100.00;99163.63;6073729;28;96185;-55
2024/02/20 13:34:51;;;;;;;;;7.40;7.00;;;;;14.56;100.00;99165.19;6073838;28;96446;-55
2024/02/20 13:37:54;;;;;;;;;7.00;6.00;;;;;14.57;100.00;99166.81;6078928;28;96375;-55
2024/02/20 13:40:57;;;;;;;;;8.00;7.20;;;;;14.45;100.00;99171.47;6074132;28;96372;-55
2024/02/20 13:44:04;;;;;;;;;7.60;6.60;;;;;14.46;100.00;99162.28;6078493;28;96310;-55
2024/02/20 13:47:07;;;;;;;;;6.00;6.00;;;;;14.54;100.00;99165.41;6055258;28;97293;-58
2024/02/20 13:50:22;;;;;;;;;7.00;6.00;;;;;14.70;100.00;99163.84;6043480;28;96387;-58
2024/02/20 13:53:25;;;;;;;;;6.00;6.00;;;;;14.69;100.00;99168.44;6042822;28;96451;-58
2024/02/20 13:56:28;;;;;;;;;4.20;4.20;;;;;14.79;100.00;99173.25;6043165;28;96372;-58
2024/02/20 13:59:36;;;;;;;;;7.00;6.00;;;;;14.92;100.00;99169.41;6048087;28;96486;-58
2024/02/20 14:02:39;;;;;;;;;7.00;6.00;;;;;14.90;100.00;99169.66;6050844;28;96332;-58
2024/02/20 14:05:42;;;;;;;;;6.00;6.00;;;;;14.95;100.00;99168.94;6025996;28;96899;-58
2024/02/20 14:08:46;;;;;;;;;8.00;7.60;;;;;14.95;100.00;99167.06;6024871;28;96445;-57
2024/02/20 14:11:49;;;;;;;;;9.80;8.00;;;;;14.96;100.00;99178.72;6017951;28;96870;-57